createdAt,value
2023-04-08T00:01:37.609Z,220.23318
2023-04-08T00:06:39.050Z,390.37681
2023-04-08T00:11:40.926Z,403.70149
2023-04-08T00:16:42.553Z,429.03937
2023-04-08T00:21:43.857Z,504
2023-04-08T00:26:45.141Z,390.37681
2023-04-08T00:31:46.491Z,371.77778
2023-04-08T00:36:47.769Z,498.95495
2023-04-08T00:41:49.076Z,440.77419
2023-04-08T00:46:50.508Z,414.22901
2023-04-08T00:51:51.888Z,530.66667
2023-04-08T00:56:53.143Z,560
2023-04-08T01:01:54.960Z,509.13761
2023-04-08T01:06:56.354Z,592.42105
2023-04-08T01:11:57.809Z,547.92157
2023-04-08T01:16:59.187Z,547.92157
2023-04-08T01:22:00.605Z,509.13761
2023-04-08T01:27:01.863Z,542.05825
2023-04-08T01:32:03.469Z,547.92157
2023-04-08T01:37:04.879Z,530.66667
2023-04-08T01:42:06.168Z,466.0339
2023-04-08T01:47:07.966Z,475.03448
2023-04-08T01:52:09.344Z,432.88889
2023-04-08T01:57:10.821Z,360.21622
2023-04-08T02:02:12.250Z,371.77778
2023-04-08T02:07:13.617Z,365.91781
2023-04-08T02:12:14.938Z,354.66667
2023-04-08T02:17:16.418Z,351.94702
2023-04-08T02:22:17.674Z,349.26316
2023-04-08T02:27:18.949Z,344
2023-04-08T02:32:20.356Z,338.87179
2023-04-08T02:37:21.843Z,331.42138
2023-04-08T02:42:23.133Z,329
2023-04-08T02:47:24.661Z,341.41935
2023-04-08T02:52:25.958Z,357.42282
2023-04-08T02:57:27.195Z,354.66667
2023-04-08T03:02:28.753Z,390.37681
2023-04-08T03:07:30.080Z,393.63504
2023-04-08T03:12:31.467Z,393.63504
2023-04-08T03:17:33.002Z,387.16547
2023-04-08T03:22:34.507Z,387.16547
2023-04-08T03:27:35.747Z,387.16547
2023-04-08T03:32:37.427Z,380.87943
2023-04-08T03:37:39.215Z,377.80282
2023-04-08T03:42:40.561Z,368.82759
2023-04-08T03:47:42.134Z,365.91781
2023-04-08T03:52:43.651Z,371.77778
2023-04-08T03:57:44.961Z,368.82759
2023-04-08T04:02:46.522Z,363.04762
2023-04-08T04:07:47.917Z,371.77778
2023-04-08T04:12:49.246Z,368.82759
2023-04-08T04:17:50.770Z,365.91781
2023-04-08T04:22:52.107Z,374.76923
2023-04-08T04:27:53.590Z,365.91781
2023-04-08T04:32:55.032Z,371.77778
2023-04-08T04:37:56.547Z,374.76923
2023-04-08T04:42:57.928Z,368.82759
2023-04-08T04:47:59.514Z,371.77778
2023-04-08T04:53:00.838Z,374.76923
2023-04-08T04:58:02.232Z,371.77778
2023-04-08T05:03:03.736Z,368.82759
2023-04-08T05:08:05.073Z,380.87943
2023-04-08T05:13:06.374Z,390.37681
2023-04-08T05:18:07.794Z,414.22901
2023-04-08T05:23:09.202Z,436.8
2023-04-08T05:28:10.549Z,466.0339
2023-04-08T05:33:11.880Z,509.13761
2023-04-08T05:38:13.144Z,514.37037
2023-04-08T05:43:14.581Z,498.95495
2023-04-08T05:48:16.568Z,514.37037
2023-04-08T05:53:18.246Z,498.95495
2023-04-08T05:58:19.971Z,560
2023-04-08T06:03:22.191Z,560
2023-04-08T06:08:23.967Z,599.31915
2023-04-08T06:13:25.618Z,686.16867
2023-04-08T06:18:27.396Z,799.55556
2023-04-08T06:23:29.291Z,1006.06897
2023-04-08T06:28:31.282Z,906.5
2023-04-08T06:33:32.938Z,1344
2023-04-08T06:38:34.596Z,1044
2023-04-08T06:43:36.170Z,1201.14286
2023-04-08T06:48:37.548Z,1283.13043
2023-04-08T06:53:39.090Z,2408
2023-04-08T06:58:40.350Z,2225.48148
2023-04-08T07:03:41.894Z,2313.23077
2023-04-08T07:08:43.248Z,2622.26087
2023-04-08T07:13:44.596Z,3186.10526
2023-04-08T07:18:46.039Z,2877.33333
2023-04-08T07:23:47.369Z,2744
2023-04-08T07:28:48.883Z,2408
2023-04-08T07:33:50.745Z,3186.10526
2023-04-08T07:38:52.403Z,3567.52941
2023-04-08T07:43:54.001Z,3024
2023-04-08T07:48:55.500Z,4050.66667
2023-04-08T07:53:56.968Z,6104
2023-04-08T07:58:58.330Z,6788.44444
2023-04-08T08:03:59.966Z,6104
2023-04-08T08:09:01.393Z,7644
2023-04-08T08:14:02.716Z,6788.44444
2023-04-08T08:19:03.970Z,6104
2023-04-08T08:24:05.521Z,6104
2023-04-08T08:29:06.907Z,6104
2023-04-08T08:34:08.711Z,6104
2023-04-08T08:39:09.993Z,5077.33333
2023-04-08T08:44:11.576Z,2744
2023-04-08T08:49:13.058Z,5077.33333
2023-04-08T08:54:14.436Z,6788.44444
2023-04-08T08:59:15.794Z,7644
2023-04-08T09:04:17.632Z,8744
2023-04-08T09:09:19.080Z,12264
2023-04-08T09:14:20.622Z,10210.66667
2023-04-08T09:19:22.257Z,4682.46154
2023-04-08T09:24:23.621Z,6788.44444
2023-04-08T09:29:26.165Z,3366.22222
2023-04-08T09:34:28.190Z,1044
2023-04-08T09:39:29.691Z,4050.66667
2023-04-08T09:44:30.963Z,5544
2023-04-08T09:49:32.529Z,6104
2023-04-08T09:54:33.874Z,12264
2023-04-08T09:59:35.488Z,12264
2023-04-08T10:04:36.943Z,10210.66667
2023-04-08T10:09:38.665Z,7644
2023-04-08T10:14:40.483Z,12264
2023-04-08T10:19:42.286Z,12264
2023-04-08T10:24:44.099Z,8744
2023-04-08T10:29:45.880Z,7644
2023-04-08T10:34:47.480Z,10210.66667
2023-04-08T10:39:49.040Z,20477.33333
2023-04-08T10:44:50.739Z,20477.33333
2023-04-08T10:49:52.048Z,10210.66667
2023-04-08T10:54:53.334Z,10210.66667
2023-04-08T10:59:54.840Z,6788.44444
2023-04-08T11:04:56.180Z,15344
2023-04-08T11:09:57.486Z,20477.33333
2023-04-08T11:14:58.853Z,20477.33333
2023-04-08T11:20:00.452Z,15344
2023-04-08T11:25:02.101Z,8744
2023-04-08T11:30:03.390Z,12264
2023-04-08T11:35:04.823Z,15344
2023-04-08T11:40:06.376Z,12264
2023-04-08T11:45:07.940Z,12264
2023-04-08T11:50:09.382Z,8744
2023-04-08T11:55:11.200Z,6788.44444
2023-04-08T12:00:12.803Z,10210.66667
2023-04-08T12:05:14.588Z,20477.33333
2023-04-08T12:10:16.436Z,20477.33333
2023-04-08T12:15:18.029Z,12264
2023-04-08T12:20:19.903Z,10210.66667
2023-04-08T12:25:21.548Z,15344
2023-04-08T12:30:23.113Z,12264
2023-04-08T12:35:24.845Z,8744
2023-04-08T12:40:26.509Z,12264
2023-04-08T12:45:28.094Z,5544
2023-04-08T12:50:29.827Z,10210.66667
2023-04-08T12:55:31.427Z,6788.44444
2023-04-08T13:00:33.022Z,20477.33333
2023-04-08T13:05:43.152Z,20477.33333
2023-04-08T13:10:45.179Z,10210.66667
2023-04-08T13:15:51.550Z,8744
2023-04-08T13:20:52.986Z,15344
2023-04-08T13:25:54.307Z,20477.33333
2023-04-08T13:30:55.838Z,30744
2023-04-08T13:35:57.475Z,30744
2023-04-08T13:40:58.806Z,20477.33333
2023-04-08T13:46:00.242Z,20477.33333
2023-04-08T13:51:01.883Z,30744
2023-04-08T13:56:03.369Z,30744
2023-04-08T14:01:04.785Z,30744
2023-04-08T14:06:06.331Z,30744
2023-04-08T14:11:07.607Z,30744
2023-04-08T14:16:08.865Z,61544
2023-04-08T14:21:10.210Z,61544
2023-04-08T14:26:11.770Z,61544
2023-04-08T14:31:13.102Z,30744
2023-04-08T14:36:14.480Z,61544
2023-04-08T14:41:15.847Z,61544
2023-04-08T14:46:17.252Z,30744
2023-04-08T14:51:18.749Z,61544
2023-04-08T14:56:20.110Z,61544
2023-04-08T15:01:21.511Z,61544
2023-04-08T15:06:22.969Z,20477.33333
2023-04-08T15:11:24.230Z,20477.33333
2023-04-08T15:16:25.531Z,20477.33333
2023-04-08T15:21:27.032Z,8744
2023-04-08T15:26:28.331Z,6788.44444
2023-04-08T15:31:29.678Z,3366.22222
2023-04-08T15:36:31.178Z,4050.66667
2023-04-08T15:41:33.190Z,2408
2023-04-08T15:46:35.551Z,1997.33333
2023-04-08T15:51:38.874Z,2068.13793
2023-04-08T15:56:40.129Z,2510.66667
2023-04-08T16:01:41.419Z,1608.86486
2023-04-08T16:06:42.865Z,1565.05263
2023-04-08T16:11:44.465Z,1655.11111
2023-04-08T16:16:45.711Z,1608.86486
2023-04-08T16:21:47.040Z,1523.48718
2023-04-08T16:26:48.419Z,1446.43902
2023-04-08T16:31:50.383Z,988.0678
2023-04-08T16:36:53.747Z,877.33333
2023-04-08T16:41:55.093Z,2225.48148
2023-04-08T16:46:56.590Z,1755.76471
2023-04-08T16:51:57.980Z,1344
2023-04-08T16:56:59.215Z,921.77778
2023-04-08T17:02:00.606Z,606.36559
2023-04-08T17:07:02.012Z,585.66667
2023-04-08T17:12:03.275Z,484.35088
2023-04-08T17:17:04.760Z,849.88235
2023-04-08T17:22:06.275Z,660.27907
2023-04-08T17:27:07.569Z,686.16867
2023-04-08T17:32:09.017Z,652.04598
2023-04-08T17:37:10.566Z,652.04598
2023-04-08T17:42:11.895Z,652.04598
2023-04-08T17:47:13.766Z,566.22222
2023-04-08T17:52:15.237Z,547.92157
2023-04-08T17:57:16.789Z,519.70093
2023-04-08T18:02:18.520Z,606.36559
2023-04-08T18:07:20.452Z,572.57143
2023-04-08T18:12:22.471Z,560
2023-04-08T18:17:24.181Z,606.36559
2023-04-08T18:22:25.987Z,585.66667
2023-04-08T18:27:27.708Z,592.42105
2023-04-08T18:32:29.355Z,765.33333
2023-04-08T18:37:31.308Z,1608.86486
2023-04-08T18:42:32.925Z,1997.33333
2023-04-08T18:47:34.643Z,3366.22222
2023-04-08T18:52:36.430Z,2744
2023-04-08T18:57:38.095Z,3186.10526
2023-04-08T19:02:39.822Z,5077.33333
2023-04-08T19:07:41.469Z,2622.26087
2023-04-08T19:12:43.100Z,3024
2023-04-08T19:17:44.966Z,2622.26087
2023-04-08T19:22:46.742Z,2510.66667
2023-04-08T19:27:48.765Z,1810.66667
2023-04-08T19:32:50.573Z,1997.33333
2023-04-08T19:37:52.458Z,2744
2023-04-08T19:42:54.138Z,2510.66667
2023-04-08T19:47:55.898Z,2144
2023-04-08T19:52:57.897Z,2225.48148
2023-04-08T19:57:59.162Z,2510.66667
2023-04-08T20:08:01.807Z,1704
2023-04-08T20:13:03.191Z,1523.48718
2023-04-08T20:18:04.773Z,1484
2023-04-08T20:23:06.463Z,1565.05263
2023-04-08T20:28:07.706Z,1283.13043
2023-04-08T20:33:09.051Z,1254.6383
2023-04-08T20:38:10.556Z,1044
2023-04-08T20:43:11.901Z,1084.74074
2023-04-08T20:48:13.294Z,1254.6383
2023-04-08T20:53:14.914Z,1410.66667
2023-04-08T20:58:16.230Z,1655.11111
2023-04-08T21:03:17.704Z,1704
2023-04-08T21:08:19.177Z,1376.55814
2023-04-08T21:13:20.580Z,1064
2023-04-08T21:18:21.950Z,824
2023-04-08T21:23:23.639Z,776.43243
2023-04-08T21:28:25.221Z,677.33333
2023-04-08T21:33:26.907Z,606.36559
2023-04-08T21:38:28.461Z,542.05825
2023-04-08T21:43:30.310Z,509.13761
2023-04-08T21:48:31.988Z,489.13274
2023-04-08T21:53:33.525Z,466.0339
2023-04-08T21:58:35.056Z,457.33333
2023-04-08T22:03:36.747Z,440.77419
2023-04-08T22:08:38.461Z,436.8
2023-04-08T22:13:40.084Z,429.03937
2023-04-08T22:18:41.874Z,432.88889
2023-04-08T22:23:43.527Z,425.25
2023-04-08T22:28:45.232Z,417.84615
2023-04-08T22:33:47.016Z,407.15789
2023-04-08T22:38:48.984Z,400.2963
2023-04-08T22:43:50.771Z,393.63504
2023-04-08T22:48:52.782Z,396.94118
2023-04-08T22:53:54.504Z,396.94118
2023-04-08T22:58:56.253Z,393.63504
2023-04-08T23:03:57.924Z,396.94118
2023-04-08T23:08:59.355Z,400.2963
2023-04-08T23:14:01.121Z,396.94118
2023-04-08T23:19:02.619Z,396.94118
2023-04-08T23:24:03.953Z,403.70149
2023-04-08T23:29:05.225Z,403.70149
2023-04-08T23:34:07.183Z,403.70149
2023-04-08T23:39:08.639Z,393.63504
2023-04-08T23:44:10.020Z,396.94118
2023-04-08T23:49:11.447Z,393.63504
2023-04-08T23:54:12.963Z,393.63504
2023-04-08T23:59:14.329Z,393.63504
